Time;durP1;ratioP1;P1;durP2;ratioP2;P2;SDS_P1;SDS_P2;PMS_P1;PMS_P2;Temp;Humidity;BMP_temperature;BMP_pressure;BME280_temperature;BME280_humidity;BME280_pressure;Samples;Min_cycle;Max_cycle;Signal;HPM_P1;HPM_P2
2021/07/08 00:00:56;;;;;;;7.73;7.03;;;18.20;99.90;;;;;;5055309;28;20965;-78
2021/07/08 00:03:23;;;;;;;7.70;6.80;;;18.30;99.90;;;;;;5056761;28;20470;-78
2021/07/08 00:05:49;;;;;;;7.53;6.83;;;18.30;99.90;;;;;;5059164;28;20451;-77
2021/07/08 00:08:17;;;;;;;7.73;6.90;;;18.30;99.90;;;;;;5059649;28;20499;-78
2021/07/08 00:10:46;;;;;;;8.17;7.57;;;18.30;99.90;;;;;;5057147;28;20926;-78
2021/07/08 00:13:14;;;;;;;7.10;6.50;;;18.20;99.90;;;;;;5055130;28;20499;-77
2021/07/08 00:15:41;;;;;;;7.37;6.70;;;18.20;99.90;;;;;;5057102;28;20493;-77
2021/07/08 00:18:10;;;;;;;6.67;6.17;;;18.20;99.90;;;;;;5063308;28;20442;-77
2021/07/08 00:20:38;;;;;;;7.40;6.80;;;18.10;99.90;;;;;;5057969;28;20497;-78
2021/07/08 00:23:04;;;;;;;7.10;6.40;;;18.10;99.90;;;;;;5055602;28;20470;-77
2021/07/08 00:25:33;;;;;;;7.43;6.83;;;18.10;99.90;;;;;;5055418;28;20480;-77
2021/07/08 00:28:00;;;;;;;7.80;7.10;;;18.10;99.90;;;;;;5054741;28;20522;-78
2021/07/08 00:30:27;;;;;;;7.27;6.53;;;18.10;99.90;;;;;;5054966;28;20492;-78
2021/07/08 00:32:54;;;;;;;10.07;6.83;;;18.10;99.90;;;;;;5054672;28;20547;-78
2021/07/08 00:35:21;;;;;;;6.60;6.10;;;18.10;99.90;;;;;;5055081;28;20525;-78
2021/07/08 00:37:48;;;;;;;7.60;6.93;;;18.00;99.90;;;;;;5054740;28;20448;-78
2021/07/08 00:40:15;;;;;;;6.93;6.30;;;18.00;99.90;;;;;;5059825;28;20936;-77
2021/07/08 00:42:44;;;;;;;6.60;6.10;;;18.10;99.90;;;;;;5060171;28;20506;-77
2021/07/08 00:45:14;;;;;;;6.23;5.73;;;18.00;99.90;;;;;;5059725;28;20792;-78
2021/07/08 00:47:41;;;;;;;7.07;6.57;;;18.00;99.90;;;;;;5058457;28;20909;-78
2021/07/08 00:50:10;;;;;;;7.43;6.67;;;17.90;99.90;;;;;;5054708;28;20603;-78
2021/07/08 00:52:37;;;;;;;6.93;6.40;;;18.00;99.90;;;;;;5054536;28;20469;-78
2021/07/08 00:55:05;;;;;;;7.40;6.80;;;18.00;99.90;;;;;;5054459;28;20501;-78
2021/07/08 00:57:31;;;;;;;5.93;5.50;;;18.00;99.90;;;;;;5055009;28;20470;-78
2021/07/08 00:59:59;;;;;;;6.90;6.40;;;18.00;99.90;;;;;;5054951;28;20511;-77
2021/07/08 01:02:27;;;;;;;7.77;7.07;;;17.90;99.90;;;;;;5054885;28;20503;-78
2021/07/08 01:04:53;;;;;;;7.40;6.70;;;18.00;99.90;;;;;;5055129;28;20556;-77
2021/07/08 01:07:23;;;;;;;7.37;6.80;;;18.00;99.90;;;;;;5059955;28;20438;-77
2021/07/08 01:09:51;;;;;;;7.07;6.57;;;17.90;99.90;;;;;;5061289;28;20451;-78
2021/07/08 01:12:18;;;;;;;8.73;7.93;;;17.80;99.90;;;;;;5054371;28;20455;-77
2021/07/08 01:14:45;;;;;;;7.40;6.80;;;17.90;99.90;;;;;;5054207;28;21003;-77
2021/07/08 01:17:13;;;;;;;7.70;7.10;;;17.80;99.90;;;;;;5054359;28;20480;-78
2021/07/08 01:19:42;;;;;;;8.37;7.53;;;17.80;99.90;;;;;;5054232;28;20451;-78
2021/07/08 01:22:10;;;;;;;8.00;7.40;;;17.80;99.90;;;;;;5053785;28;20450;-78
2021/07/08 01:24:37;;;;;;;8.13;7.43;;;17.80;99.90;;;;;;5060049;28;20475;-77
2021/07/08 01:27:05;;;;;;;8.47;7.77;;;17.70;99.90;;;;;;5061321;28;20457;-77
2021/07/08 01:29:32;;;;;;;7.30;6.70;;;17.60;99.90;;;;;;5061393;28;20513;-77
2021/07/08 01:31:58;;;;;;;8.40;7.70;;;17.60;99.90;;;;;;5054420;28;20482;-78
2021/07/08 01:34:25;;;;;;;8.73;7.93;;;17.70;99.90;;;;;;5053856;28;20500;-78
2021/07/08 01:36:52;;;;;;;10.70;8.00;;;17.70;99.90;;;;;;5055143;28;20454;-77
2021/07/08 01:39:20;;;;;;;9.60;8.87;;;17.70;99.90;;;;;;5063397;28;20453;-77
2021/07/08 01:41:47;;;;;;;8.80;8.00;;;17.60;99.90;;;;;;5062959;28;20450;-77
2021/07/08 01:44:14;;;;;;;10.20;7.83;;;17.60;99.90;;;;;;5056343;28;20528;-78
2021/07/08 01:46:41;;;;;;;8.87;8.07;;;17.50;99.90;;;;;;5054585;28;20845;-78
2021/07/08 01:49:07;;;;;;;10.50;9.60;;;17.50;99.90;;;;;;5054432;28;20564;-78
2021/07/08 01:51:35;;;;;;;9.60;8.57;;;17.50;99.90;;;;;;5053616;28;20477;-77
2021/07/08 01:54:03;;;;;;;9.57;8.50;;;17.50;99.90;;;;;;5053651;28;20886;-78
2021/07/08 01:56:33;;;;;;;11.30;10.20;;;17.50;99.90;;;;;;5053964;28;20488;-78
2021/07/08 01:58:59;;;;;;;8.80;8.03;;;17.50;99.90;;;;;;5053683;28;20846;-78
2021/07/08 02:01:26;;;;;;;9.73;8.73;;;17.50;99.90;;;;;;5054667;28;20473;-77
2021/07/08 02:03:53;;;;;;;7.90;7.30;;;17.60;99.90;;;;;;5053793;28;20501;-78
2021/07/08 02:06:20;;;;;;;9.43;8.53;;;17.60;99.90;;;;;;5053509;28;20523;-78
2021/07/08 02:08:48;;;;;;;9.83;8.93;;;17.50;99.90;;;;;;5053339;28;20519;-77
2021/07/08 02:11:15;;;;;;;10.30;9.40;;;17.50;99.90;;;;;;5053360;28;20446;-78
2021/07/08 02:13:44;;;;;;;10.90;8.73;;;17.50;99.90;;;;;;5053482;28;20489;-78
2021/07/08 02:16:11;;;;;;;9.10;8.30;;;17.50;99.90;;;;;;5053523;28;20804;-78
2021/07/08 02:18:38;;;;;;;9.40;8.50;;;17.50;99.90;;;;;;5054373;28;20775;-77
2021/07/08 02:21:05;;;;;;;9.00;8.20;;;17.50;99.90;;;;;;5053544;28;20454;-78
2021/07/08 02:23:32;;;;;;;8.53;7.77;;;17.50;99.90;;;;;;5053236;28;20827;-78
2021/07/08 02:26:00;;;;;;;8.93;8.10;;;17.50;99.90;;;;;;5055126;28;20445;-78
2021/07/08 02:28:27;;;;;;;8.40;7.63;;;17.50;99.90;;;;;;5055196;28;20470;-78
2021/07/08 02:30:55;;;;;;;8.00;7.40;;;17.50;99.90;;;;;;5059882;28;20770;-77
2021/07/08 02:33:22;;;;;;;8.60;7.90;;;17.40;99.90;;;;;;5059044;28;20467;-77
2021/07/08 02:35:49;;;;;;;9.70;8.90;;;17.50;99.90;;;;;;5057271;28;20959;-78
2021/07/08 02:38:15;;;;;;;11.23;9.07;;;17.40;99.90;;;;;;5054186;28;20968;-78
2021/07/08 02:40:42;;;;;;;9.00;8.30;;;17.40;99.90;;;;;;5054670;28;20445;-78
2021/07/08 02:43:10;;;;;;;9.97;9.10;;;17.30;99.90;;;;;;5053847;28;20515;-78
2021/07/08 02:45:39;;;;;;;9.20;8.30;;;17.30;99.90;;;;;;5056023;28;20871;-78
2021/07/08 02:48:09;;;;;;;9.13;8.33;;;17.30;99.90;;;;;;5055139;28;21010;-78
2021/07/08 02:50:37;;;;;;;9.40;8.60;;;17.20;99.90;;;;;;5054187;28;20473;-78
2021/07/08 02:53:04;;;;;;;9.97;9.07;;;17.20;99.90;;;;;;5053167;28;20478;-78
2021/07/08 02:55:31;;;;;;;8.87;8.23;;;17.20;99.90;;;;;;5058124;28;20442;-77
2021/07/08 02:57:58;;;;;;;9.27;8.53;;;17.20;99.90;;;;;;5056437;28;20438;-78
2021/07/08 03:00:26;;;;;;;9.77;8.97;;;17.10;99.90;;;;;;5056382;28;20483;-78
2021/07/08 03:02:54;;;;;;;9.00;8.30;;;17.10;99.90;;;;;;5057730;28;20487;-78
2021/07/08 03:05:22;;;;;;;10.43;9.43;;;17.10;99.90;;;;;;5061003;28;20445;-77
2021/07/08 03:07:49;;;;;;;11.60;10.60;;;17.20;99.90;;;;;;5059710;28;20480;-78
2021/07/08 03:10:18;;;;;;;10.87;9.90;;;17.20;99.90;;;;;;5058932;28;20476;-78
2021/07/08 03:12:45;;;;;;;12.20;10.97;;;17.20;99.90;;;;;;5057873;28;20846;-78
2021/07/08 03:15:13;;;;;;;10.73;9.73;;;17.20;99.90;;;;;;5058781;28;20446;-78
2021/07/08 03:17:40;;;;;;;10.80;9.90;;;17.20;99.90;;;;;;5058029;28;20497;-78
2021/07/08 03:20:11;;;;;;;9.43;8.63;;;17.20;99.90;;;;;;5056420;28;20478;-78
2021/07/08 03:22:40;;;;;;;8.93;8.27;;;17.20;99.90;;;;;;5056467;28;20464;-78
2021/07/08 03:25:08;;;;;;;9.17;8.47;;;17.20;99.90;;;;;;5056580;28;20482;-78
2021/07/08 03:27:35;;;;;;;10.60;9.60;;;17.20;99.90;;;;;;5056531;28;20485;-78
2021/07/08 03:30:04;;;;;;;9.27;8.47;;;17.20;99.90;;;;;;5056218;28;20546;-78
2021/07/08 03:32:30;;;;;;;9.60;8.73;;;17.40;99.90;;;;;;5056217;28;20450;-78
2021/07/08 03:34:57;;;;;;;9.60;8.90;;;17.10;99.90;;;;;;5056429;28;20951;-78
2021/07/08 03:37:23;;;;;;;14.70;13.43;;;17.10;99.90;;;;;;5056274;28;20481;-78
2021/07/08 03:39:51;;;;;;;10.23;9.33;;;17.10;99.90;;;;;;5056980;28;20449;-78
2021/07/08 03:42:18;;;;;;;10.03;9.23;;;17.10;99.90;;;;;;5055896;28;20473;-77
2021/07/08 03:44:45;;;;;;;9.00;8.37;;;17.10;99.90;;;;;;5097088;22;21065;-79
2021/07/08 03:47:11;;;;;;;10.20;9.40;;;17.10;99.90;;;;;;5080235;28;20468;-79
2021/07/08 03:49:38;;;;;;;10.37;9.40;;;17.20;99.90;;;;;;5080089;28;20889;-79
2021/07/08 03:52:06;;;;;;;9.73;8.93;;;17.20;99.90;;;;;;5079465;28;20448;-79
2021/07/08 03:54:32;;;;;;;10.57;9.70;;;17.20;99.90;;;;;;5079303;28;20460;-79
2021/07/08 03:57:00;;;;;;;9.83;8.83;;;17.20;99.90;;;;;;5078972;28;20445;-78
2021/07/08 03:59:27;;;;;;;10.30;9.50;;;17.20;99.90;;;;;;5079546;28;20445;-78
2021/07/08 04:01:54;;;;;;;10.10;9.20;;;17.20;99.90;;;;;;5080147;28;20472;-79
2021/07/08 04:04:20;;;;;;;9.97;9.20;;;17.20;99.90;;;;;;5080324;28;20465;-78
2021/07/08 04:06:47;;;;;;;10.43;9.53;;;17.30;99.90;;;;;;5077770;28;20993;-78
2021/07/08 04:09:13;;;;;;;10.33;9.43;;;17.30;99.90;;;;;;5077388;28;20525;-78
2021/07/08 04:11:40;;;;;;;9.93;9.03;;;17.40;99.90;;;;;;5076981;28;20475;-78
2021/07/08 04:14:08;;;;;;;10.33;9.33;;;17.50;99.90;;;;;;5076892;28;20501;-78
2021/07/08 04:16:35;;;;;;;14.80;11.63;;;17.50;99.90;;;;;;5076880;28;20445;-78
2021/07/08 04:19:03;;;;;;;14.13;8.63;;;17.60;99.90;;;;;;5077115;28;20463;-78
2021/07/08 04:21:30;;;;;;;11.10;10.00;;;17.70;99.90;;;;;;5076813;28;21028;-78
2021/07/08 04:23:57;;;;;;;10.07;8.77;;;17.70;99.90;;;;;;5078225;28;20492;-78
2021/07/08 04:26:24;;;;;;;9.30;8.50;;;17.80;99.90;;;;;;5079600;28;20521;-79
2021/07/08 04:28:50;;;;;;;11.00;10.00;;;17.80;99.90;;;;;;5078869;28;20991;-78
2021/07/08 04:31:18;;;;;;;10.67;9.80;;;17.80;99.90;;;;;;5077677;28;20475;-78
2021/07/08 04:33:46;;;;;;;10.13;9.10;;;18.10;99.90;;;;;;5076708;28;20448;-79
2021/07/08 04:36:13;;;;;;;10.27;9.43;;;17.70;99.90;;;;;;5076441;28;20479;-80
2021/07/08 04:38:41;;;;;;;10.57;9.57;;;17.60;99.90;;;;;;5077342;28;20437;-80
2021/07/08 04:41:08;;;;;;;10.77;9.63;;;17.60;99.90;;;;;;5076744;28;20454;-78
2021/07/08 04:43:34;;;;;;;11.83;10.73;;;17.60;99.90;;;;;;5076641;28;20893;-79
2021/07/08 04:46:01;;;;;;;14.07;10.57;;;17.40;99.90;;;;;;5077294;28;20876;-80
2021/07/08 04:48:29;;;;;;;11.90;10.90;;;17.60;99.90;;;;;;5077599;28;20472;-78
2021/07/08 04:50:56;;;;;;;10.90;10.03;;;17.60;99.90;;;;;;5077404;28;20500;-79
2021/07/08 04:53:22;;;;;;;11.50;10.53;;;17.60;99.90;;;;;;5077545;28;20468;-78
2021/07/08 04:55:49;;;;;;;13.40;12.10;;;17.60;99.90;;;;;;5076644;28;20500;-78
2021/07/08 04:58:15;;;;;;;12.67;11.27;;;17.70;99.90;;;;;;5076798;28;20449;-78
2021/07/08 05:00:42;;;;;;;12.40;11.30;;;17.70;99.90;;;;;;5077071;28;20518;-78
2021/07/08 05:03:10;;;;;;;11.27;10.23;;;17.70;99.90;;;;;;5076830;28;20471;-78
2021/07/08 05:05:38;;;;;;;12.97;11.73;;;17.70;99.90;;;;;;5075621;28;20486;-79
2021/07/08 05:08:05;;;;;;;14.70;11.57;;;17.70;99.90;;;;;;5074872;28;20453;-78
2021/07/08 05:10:33;;;;;;;14.57;13.07;;;17.70;99.90;;;;;;5076939;28;20520;-80
2021/07/08 05:13:00;;;;;;;15.67;13.70;;;17.70;99.90;;;;;;5081495;28;20489;-79
2021/07/08 05:15:27;;;;;;;15.00;13.37;;;17.80;99.90;;;;;;5084265;28;20445;-79
2021/07/08 05:17:54;;;;;;;15.13;13.73;;;17.90;99.90;;;;;;5080675;28;20968;-79
2021/07/08 05:20:20;;;;;;;13.83;11.30;;;18.00;99.90;;;;;;5082389;28;20449;-79
2021/07/08 05:22:55;;;;;;;11.30;10.30;;;17.90;99.90;;;;;;5076593;28;20940;-79
2021/07/08 05:25:22;;;;;;;11.87;10.77;;;18.00;99.90;;;;;;5078310;28;20429;-80
2021/07/08 05:27:48;;;;;;;17.47;12.30;;;18.00;99.90;;;;;;5077330;28;20497;-79
2021/07/08 05:30:15;;;;;;;13.30;11.77;;;18.10;99.90;;;;;;5076162;28;20560;-79
2021/07/08 05:32:42;;;;;;;12.23;11.00;;;18.00;99.90;;;;;;5075375;28;20447;-79
2021/07/08 05:35:09;;;;;;;12.30;11.10;;;18.10;99.90;;;;;;5075808;28;20454;-80
2021/07/08 05:37:36;;;;;;;11.73;10.83;;;18.10;99.90;;;;;;5077040;28;20457;-80
2021/07/08 05:40:06;;;;;;;10.97;9.97;;;18.10;99.90;;;;;;5077488;28;20939;-78
2021/07/08 05:42:32;;;;;;;12.60;10.50;;;18.10;99.90;;;;;;5078070;28;20472;-80
2021/07/08 05:44:59;;;;;;;11.57;10.43;;;18.00;99.90;;;;;;5077070;28;20485;-79
2021/07/08 05:47:25;;;;;;;10.70;9.63;;;18.00;99.90;;;;;;5077881;28;20469;-79
2021/07/08 05:49:52;;;;;;;13.70;9.93;;;18.30;99.90;;;;;;5080525;28;20521;-79
2021/07/08 05:52:18;;;;;;;9.97;9.17;;;18.10;99.90;;;;;;5077216;28;20458;-80
2021/07/08 05:54:45;;;;;;;12.10;10.40;;;18.20;99.90;;;;;;5077036;28;20813;-78
2021/07/08 05:57:13;;;;;;;11.17;10.23;;;18.10;99.90;;;;;;5084614;28;20472;-78
2021/07/08 05:59:39;;;;;;;10.53;9.43;;;18.10;99.90;;;;;;5078036;28;20441;-78
2021/07/08 06:02:07;;;;;;;10.50;9.60;;;18.20;99.90;;;;;;5083274;28;20450;-79
2021/07/08 06:04:33;;;;;;;11.83;9.97;;;18.30;99.90;;;;;;5086258;28;20493;-78
2021/07/08 06:07:00;;;;;;;10.30;9.30;;;18.30;99.90;;;;;;5086473;28;20809;-78
2021/07/08 06:09:26;;;;;;;9.70;8.80;;;18.40;99.90;;;;;;5085687;28;20842;-78
2021/07/08 06:11:53;;;;;;;10.07;9.13;;;18.40;99.90;;;;;;5084760;28;20477;-79
2021/07/08 06:14:21;;;;;;;9.97;9.17;;;18.50;99.90;;;;;;5083666;28;20470;-78
2021/07/08 06:16:48;;;;;;;16.40;9.00;;;18.40;99.90;;;;;;5083080;28;20446;-78
2021/07/08 06:19:14;;;;;;;10.53;9.60;;;18.40;99.90;;;;;;5083507;28;20449;-79
2021/07/08 06:21:41;;;;;;;10.47;9.67;;;18.40;99.90;;;;;;5085537;28;20471;-79
2021/07/08 06:24:08;;;;;;;10.13;9.23;;;18.40;99.90;;;;;;5084999;28;20501;-79
2021/07/08 06:26:35;;;;;;;16.20;8.77;;;18.40;99.90;;;;;;5084874;28;20437;-79
2021/07/08 06:29:01;;;;;;;9.27;8.40;;;18.50;99.90;;;;;;5086390;28;20456;-79
2021/07/08 06:31:29;;;;;;;11.70;9.10;;;18.50;99.90;;;;;;5089867;28;20451;-79
2021/07/08 06:33:56;;;;;;;14.30;9.53;;;18.50;99.90;;;;;;5089543;28;20467;-79
2021/07/08 06:36:22;;;;;;;9.90;9.00;;;18.50;99.90;;;;;;5089141;28;20444;-79
2021/07/08 06:38:49;;;;;;;9.80;8.93;;;18.50;99.90;;;;;;5089535;28;20455;-79
2021/07/08 06:41:15;;;;;;;12.90;10.07;;;18.50;99.90;;;;;;5087185;28;20985;-79
2021/07/08 06:43:42;;;;;;;11.50;9.50;;;18.50;99.90;;;;;;5085092;28;20487;-79
2021/07/08 06:46:09;;;;;;;8.70;8.00;;;18.50;99.90;;;;;;5082589;28;20538;-79
2021/07/08 06:48:37;;;;;;;10.90;9.77;;;18.50;99.90;;;;;;5081127;28;20461;-79
2021/07/08 06:51:03;;;;;;;9.67;8.43;;;18.60;99.90;;;;;;5080011;28;20524;-80
2021/07/08 06:53:30;;;;;;;9.53;8.60;;;18.60;99.90;;;;;;5080667;28;20520;-79
2021/07/08 06:55:56;;;;;;;9.97;9.00;;;18.60;99.90;;;;;;5082350;28;20482;-80
2021/07/08 06:58:23;;;;;;;12.33;11.13;;;18.60;99.90;;;;;;5080787;28;20480;-80
2021/07/08 07:00:49;;;;;;;9.80;8.63;;;18.60;99.90;;;;;;5081632;28;20446;-79
2021/07/08 07:03:16;;;;;;;9.40;8.57;;;18.50;99.90;;;;;;5081939;28;20874;-79
2021/07/08 07:05:44;;;;;;;9.33;8.53;;;18.50;99.90;;;;;;5081722;28;20872;-79
2021/07/08 07:08:10;;;;;;;9.60;8.63;;;18.50;99.90;;;;;;5080093;28;20474;-80
2021/07/08 07:10:37;;;;;;;9.73;8.47;;;18.50;99.90;;;;;;5079535;28;20479;-79
2021/07/08 07:13:10;;;;;;;11.17;10.07;;;18.50;99.90;;;;;;5081844;28;20495;-79
2021/07/08 07:15:36;;;;;;;9.87;8.97;;;18.50;99.90;;;;;;5079267;28;20437;-78
2021/07/08 07:18:04;;;;;;;9.53;8.60;;;18.50;99.90;;;;;;5078878;28;20449;-79
2021/07/08 07:20:31;;;;;;;9.97;8.97;;;18.60;99.90;;;;;;5078668;28;20451;-79
2021/07/08 07:22:59;;;;;;;10.60;8.40;;;18.50;99.90;;;;;;5079511;28;20512;-79
2021/07/08 07:25:27;;;;;;;10.77;8.70;;;18.60;99.90;;;;;;5081261;28;20447;-80
2021/07/08 07:27:55;;;;;;;11.17;8.90;;;18.60;99.90;;;;;;5082702;28;20451;-80
2021/07/08 07:30:23;;;;;;;9.23;8.40;;;18.60;99.90;;;;;;5082320;28;20483;-80
2021/07/08 07:32:51;;;;;;;10.77;7.90;;;18.70;99.90;;;;;;5079727;28;20506;-79
2021/07/08 07:35:17;;;;;;;8.33;7.63;;;18.70;99.90;;;;;;5079519;28;20483;-79
2021/07/08 07:37:45;;;;;;;9.40;8.60;;;18.80;99.90;;;;;;5079257;28;20793;-79
2021/07/08 07:40:14;;;;;;;14.23;9.43;;;18.70;99.90;;;;;;5086021;28;20499;-79
2021/07/08 07:42:41;;;;;;;9.37;8.57;;;18.70;99.90;;;;;;5089120;28;20443;-79
2021/07/08 07:45:09;;;;;;;8.40;7.73;;;18.70;99.90;;;;;;5088248;28;20450;-80
2021/07/08 07:47:36;;;;;;;8.40;7.70;;;18.70;99.90;;;;;;5083896;28;20965;-80
2021/07/08 07:50:03;;;;;;;17.00;15.47;;;18.80;99.90;;;;;;5079834;28;20487;-80
2021/07/08 07:52:30;;;;;;;10.03;9.13;;;18.80;99.90;;;;;;5078854;28;20447;-79
2021/07/08 07:54:56;;;;;;;9.83;8.20;;;18.80;99.90;;;;;;5079596;28;20472;-79
2021/07/08 07:57:26;;;;;;;9.50;8.60;;;18.80;99.90;;;;;;5080099;28;20503;-82
2021/07/08 07:59:53;;;;;;;9.43;8.40;;;18.70;99.90;;;;;;5080097;28;20436;-80
2021/07/08 08:02:20;;;;;;;9.53;8.67;;;18.80;99.90;;;;;;5079555;28;20470;-80
2021/07/08 08:04:54;;;;;;;8.97;8.07;;;18.80;99.90;;;;;;5079131;28;20502;-80
2021/07/08 08:10:06;;;;;;;8.40;7.63;;;18.90;99.90;;;;;;5079068;28;20821;-81
2021/07/08 08:12:35;;;;;;;8.07;6.83;;;18.90;99.90;;;;;;5079407;28;20547;-81
2021/07/08 08:15:07;;;;;;;8.87;8.10;;;19.00;99.90;;;;;;5079342;28;20468;-81
2021/07/08 08:17:37;;;;;;;7.93;7.13;;;19.10;99.90;;;;;;5078086;28;20447;-80
2021/07/08 08:20:06;;;;;;;15.33;7.90;;;19.10;99.90;;;;;;5078850;28;20507;-80
2021/07/08 08:22:32;;;;;;;7.83;7.13;;;19.10;99.90;;;;;;5078985;28;20446;-80
2021/07/08 08:24:59;;;;;;;10.40;6.97;;;19.20;99.90;;;;;;5079075;28;20471;-80
2021/07/08 08:27:27;;;;;;;6.97;6.37;;;19.20;99.90;;;;;;5078772;28;20448;-80
2021/07/08 08:29:55;;;;;;;6.17;5.60;;;19.20;99.90;;;;;;5080840;28;20505;-81
2021/07/08 08:32:22;;;;;;;7.67;6.83;;;19.20;99.90;;;;;;5086542;28;20445;-80
2021/07/08 08:34:48;;;;;;;7.37;6.70;;;19.20;99.90;;;;;;5085320;28;20460;-80
2021/07/08 08:37:18;;;;;;;6.60;5.90;;;19.10;99.90;;;;;;5087050;28;20441;-80
2021/07/08 08:39:44;;;;;;;16.57;14.37;;;19.10;99.90;;;;;;5083373;28;20474;-80
2021/07/08 08:42:11;;;;;;;11.53;10.27;;;19.20;99.90;;;;;;5079146;28;20504;-81
2021/07/08 08:44:38;;;;;;;11.53;8.77;;;19.20;99.90;;;;;;5079061;28;20491;-80
2021/07/08 08:47:11;;;;;;;10.60;7.60;;;19.20;99.90;;;;;;5078250;28;20451;-81
2021/07/08 08:49:39;;;;;;;7.20;6.50;;;19.20;99.90;;;;;;5078420;28;20429;-81
2021/07/08 08:52:08;;;;;;;6.63;5.77;;;19.20;99.90;;;;;;5076747;28;20454;-80
2021/07/08 08:54:35;;;;;;;10.27;6.57;;;19.30;99.90;;;;;;5077193;28;20499;-79
2021/07/08 08:57:02;;;;;;;7.37;6.57;;;;;;;;;;5077711;28;20441;-79
2021/07/08 08:59:29;;;;;;;6.00;5.30;;;19.40;99.90;;;;;;5076630;28;20441;-79
2021/07/08 09:02:13;;;;;;;6.33;5.73;;;19.40;99.90;;;;;;5077726;28;20957;-81
2021/07/08 09:04:40;;;;;;;5.40;5.00;;;19.40;99.90;;;;;;5077648;28;20556;-79
2021/07/08 09:07:25;;;;;;;5.90;5.30;;;19.50;99.90;;;;;;5077967;28;20452;-79
2021/07/08 09:09:54;;;;;;;6.80;6.10;;;19.60;99.90;;;;;;5077680;28;20453;-79
2021/07/08 09:12:23;;;;;;;6.67;5.77;;;19.70;99.90;;;;;;5077857;28;20544;-79
2021/07/08 09:14:51;;;;;;;6.67;5.90;;;19.80;99.90;;;;;;5077062;28;20499;-79
2021/07/08 09:17:20;;;;;;;6.23;5.60;;;19.90;99.90;;;;;;5077802;28;20449;-79
2021/07/08 09:19:49;;;;;;;5.37;4.83;;;20.00;99.90;;;;;;5076839;28;20864;-79
2021/07/08 09:22:28;;;;;;;7.87;6.53;;;19.90;99.90;;;;;;5077091;28;20445;-79
2021/07/08 09:24:55;;;;;;;8.83;5.93;;;20.00;99.90;;;;;;5077081;28;20468;-80
2021/07/08 09:27:26;;;;;;;8.10;5.37;;;20.10;99.90;;;;;;5076354;28;20445;-80
2021/07/08 09:29:54;;;;;;;6.63;5.80;;;20.20;99.90;;;;;;5076485;28;20425;-80
2021/07/08 09:32:23;;;;;;;6.80;6.10;;;20.30;99.90;;;;;;5075507;28;20831;-80
2021/07/08 09:34:50;;;;;;;11.93;10.50;;;20.50;99.90;;;;;;5077459;28;20523;-80
2021/07/08 09:37:19;;;;;;;6.73;6.10;;;20.60;99.90;;;;;;5077753;28;20954;-80
2021/07/08 09:39:48;;;;;;;6.90;5.47;;;20.60;99.90;;;;;;5077389;28;20480;-79
2021/07/08 09:42:16;;;;;;;7.27;6.70;;;20.60;99.90;;;;;;5077175;28;20788;-79
2021/07/08 09:44:43;;;;;;;5.90;5.40;;;20.70;99.90;;;;;;5089130;22;20481;-77
2021/07/08 09:47:22;;;;;;;6.63;6.03;;;20.80;99.90;;;;;;5055453;28;20480;-77
2021/07/08 09:49:49;;;;;;;5.50;5.10;;;20.80;99.90;;;;;;5054880;28;20476;-77
2021/07/08 09:52:16;;;;;;;7.53;6.83;;;20.80;99.90;;;;;;5060558;28;20494;-76
2021/07/08 09:57:45;;;;;;;5.63;5.23;;;20.90;99.90;;;;;;5055511;28;20402;-77
2021/07/08 10:00:33;;;;;;;4.80;4.50;;;20.90;99.90;;;;;;5054736;28;20433;-77
2021/07/08 10:03:02;;;;;;;5.73;4.60;;;21.00;99.90;;;;;;5054471;28;20473;-77
2021/07/08 10:05:31;;;;;;;4.70;3.47;;;21.10;99.90;;;;;;5058125;28;20528;-77
2021/07/08 10:07:58;;;;;;;12.63;4.73;;;20.90;99.90;;;;;;5058495;28;20964;-77
2021/07/08 10:10:25;;;;;;;6.70;5.27;;;21.00;99.90;;;;;;5057536;28;20545;-77
2021/07/08 10:12:52;;;;;;;4.90;4.57;;;21.00;99.90;;;;;;5057623;28;20453;-77
2021/07/08 10:15:19;;;;;;;5.53;5.10;;;21.10;99.90;;;;;;5057311;28;20469;-77
2021/07/08 10:17:46;;;;;;;6.00;5.10;;;21.00;99.90;;;;;;5058349;28;20445;-77
2021/07/08 10:20:16;;;;;;;5.50;5.00;;;21.00;99.90;;;;;;5057391;28;20449;-77
2021/07/08 10:22:43;;;;;;;5.33;4.93;;;21.00;99.90;;;;;;5057685;28;20535;-77
2021/07/08 10:25:12;;;;;;;4.60;4.27;;;21.00;99.90;;;;;;5057575;28;20496;-77
2021/07/08 10:27:40;;;;;;;4.70;4.40;;;21.00;99.90;;;;;;5057385;28;20451;-77
2021/07/08 10:30:08;;;;;;;4.90;4.50;;;20.80;99.90;;;;;;5057760;28;20480;-77
2021/07/08 10:32:35;;;;;;;10.10;9.03;;;20.80;99.90;;;;;;5057862;28;20955;-77
2021/07/08 10:35:04;;;;;;;5.47;5.07;;;20.80;99.90;;;;;;5057608;28;20835;-77
2021/07/08 10:37:35;;;;;;;5.10;4.37;;;20.80;99.90;;;;;;5058626;28;20473;-77
2021/07/08 10:40:03;;;;;;;6.97;5.30;;;20.80;99.90;;;;;;5057265;28;20434;-77
2021/07/08 10:42:44;;;;;;;5.03;4.57;;;20.80;99.90;;;;;;5056174;28;21013;-76
2021/07/08 10:45:41;;;;;;;4.80;4.30;;;20.80;99.90;;;;;;5056833;28;20481;-77
2021/07/08 10:48:13;;;;;;;5.47;5.00;;;20.80;99.90;;;;;;5056444;28;20448;-77
2021/07/08 10:50:44;;;;;;;5.60;5.20;;;20.70;99.90;;;;;;5056979;28;20530;-77
2021/07/08 10:53:17;;;;;;;6.37;5.80;;;20.70;99.90;;;;;;5056859;28;20799;-76
2021/07/08 10:55:45;;;;;;;6.60;5.30;;;20.70;99.90;;;;;;5065505;28;20444;-77
2021/07/08 10:58:47;;;;;;;7.27;6.67;;;20.70;99.90;;;;;;5062776;28;20449;-77
2021/07/08 11:01:45;;;;;;;5.93;4.40;;;20.70;99.90;;;;;;5063255;28;20479;-77
2021/07/08 11:04:16;;;;;;;8.40;5.13;;;20.70;99.90;;;;;;5047204;28;20474;-77
2021/07/08 11:06:47;;;;;;;5.50;5.10;;;20.70;99.90;;;;;;5065441;28;20443;-77
2021/07/08 11:09:24;;;;;;;5.50;5.10;;;20.80;99.90;;;;;;5064547;28;20529;-78
2021/07/08 11:12:02;;;;;;;5.60;5.13;;;20.90;99.90;;;;;;5060706;28;20505;-78
2021/07/08 11:14:50;;;;;;;5.83;5.40;;;20.90;99.90;;;;;;5059606;28;20504;-77
2021/07/08 11:17:20;;;;;;;5.80;5.30;;;20.90;99.90;;;;;;5049614;28;20454;-77
2021/07/08 11:19:58;;;;;;;6.07;5.57;;;20.90;99.90;;;;;;5057979;28;20421;-77
2021/07/08 11:22:34;;;;;;;6.40;5.63;;;20.80;99.90;;;;;;5068545;28;20429;-77
2021/07/08 11:25:05;;;;;;;6.23;5.63;;;20.80;99.90;;;;;;5061010;28;20461;-77
2021/07/08 11:27:38;;;;;;;5.70;5.20;;;20.80;99.90;;;;;;5061810;28;20461;-77
2021/07/08 11:30:29;;;;;;;6.00;5.50;;;20.90;99.90;;;;;;5059491;28;20946;-77
2021/07/08 11:32:59;;;;;;;6.53;5.93;;;20.90;99.90;;;;;;5057475;28;20437;-77
2021/07/08 11:35:28;;;;;;;5.27;4.87;;;20.90;99.90;;;;;;5057405;28;20489;-77
2021/07/08 11:37:57;;;;;;;4.83;4.43;;;20.90;99.90;;;;;;5057497;28;20457;-77
2021/07/08 11:40:25;;;;;;;5.90;5.40;;;21.00;99.90;;;;;;5057766;28;20450;-79
2021/07/08 11:42:53;;;;;;;5.70;4.63;;;21.00;99.90;;;;;;5057759;28;20489;-78
2021/07/08 11:45:22;;;;;;;4.57;4.27;;;21.00;99.90;;;;;;5058689;28;20473;-78
2021/07/08 11:47:50;;;;;;;5.93;4.83;;;20.90;99.90;;;;;;5058870;28;20835;-78
2021/07/08 11:50:22;;;;;;;6.03;5.53;;;20.80;99.90;;;;;;5058483;28;20446;-78
2021/07/08 11:52:50;;;;;;;5.53;4.80;;;20.60;99.90;;;;;;5059392;28;20465;-77
2021/07/08 11:55:18;;;;;;;5.97;5.47;;;20.60;99.90;;;;;;5058645;28;20469;-78
2021/07/08 11:57:55;;;;;;;5.10;4.80;;;20.40;99.90;;;;;;5056448;28;20457;-77
2021/07/08 12:00:33;;;;;;;7.93;6.20;;;20.40;99.90;;;;;;5057745;28;20446;-77
2021/07/08 12:03:02;;;;;;;4.90;4.60;;;20.30;99.90;;;;;;5055530;28;20481;-76
2021/07/08 12:05:29;;;;;;;5.07;4.67;;;20.20;99.90;;;;;;5056509;28;20488;-78
2021/07/08 12:08:00;;;;;;;6.03;4.60;;;20.30;99.90;;;;;;5054893;28;20537;-77
2021/07/08 12:10:30;;;;;;;9.57;8.03;;;20.30;99.90;;;;;;5056316;28;20453;-78
2021/07/08 12:12:58;;;;;;;6.73;5.33;;;20.40;99.90;;;;;;5057806;28;20508;-78
2021/07/08 12:15:26;;;;;;;4.43;4.13;;;20.40;99.90;;;;;;5056983;28;20452;-78
2021/07/08 12:17:54;;;;;;;4.90;4.60;;;20.40;99.90;;;;;;5056549;28;20480;-77
2021/07/08 12:20:21;;;;;;;5.07;4.60;;;20.30;99.90;;;;;;5054925;28;20505;-77
2021/07/08 12:23:00;;;;;;;5.57;5.13;;;20.30;99.90;;;;;;5054567;28;20489;-77
2021/07/08 12:25:27;;;;;;;5.23;4.63;;;20.30;99.90;;;;;;5055339;28;20436;-77
2021/07/08 12:27:56;;;;;;;7.03;4.67;;;20.30;99.90;;;;;;5054516;28;20480;-77
2021/07/08 12:30:26;;;;;;;5.27;4.80;;;20.20;99.90;;;;;;5055595;28;20454;-77
2021/07/08 12:33:09;;;;;;;7.53;6.93;;;20.30;99.90;;;;;;5056148;28;20545;-77
2021/07/08 12:35:44;;;;;;;6.77;6.00;;;20.40;99.90;;;;;;5053489;28;20548;-77
2021/07/08 12:38:12;;;;;;;6.70;6.10;;;20.40;99.90;;;;;;5056915;28;20422;-77
2021/07/08 12:40:39;;;;;;;10.63;7.37;;;20.40;99.90;;;;;;5055780;28;20495;-77
2021/07/08 12:43:07;;;;;;;6.67;5.97;;;20.40;99.90;;;;;;5055667;28;20819;-78
2021/07/08 12:45:36;;;;;;;8.37;5.80;;;20.30;99.90;;;;;;5055121;28;20430;-77
2021/07/08 12:48:04;;;;;;;6.50;5.40;;;20.40;99.90;;;;;;5056159;28;20519;-77
2021/07/08 12:50:36;;;;;;;6.13;4.87;;;20.40;99.90;;;;;;5056697;28;20487;-81
2021/07/08 12:53:05;;;;;;;9.00;4.93;;;20.40;99.90;;;;;;5055824;28;20472;-77
2021/07/08 12:55:41;;;;;;;6.50;5.60;;;20.40;99.90;;;;;;5055895;28;20441;-77